createdAt,value
2023-01-19T00:00:54.949Z,98763.34
2023-01-19T00:03:21.943Z,98768.56
2023-01-19T00:05:49.688Z,98764.16
2023-01-19T00:08:17.490Z,98769.41
2023-01-19T00:10:53.179Z,98771.03
2023-01-19T00:13:20.161Z,98767.44
2023-01-19T00:15:47.104Z,98768.31
2023-01-19T00:18:14.083Z,98779.44
2023-01-19T00:20:41.313Z,98775.84
2023-01-19T00:23:08.761Z,98774.06
2023-01-19T00:25:42.182Z,98780.94
2023-01-19T00:28:14.743Z,98777.34
2023-01-19T00:30:42.667Z,98776.41
2023-01-19T00:33:11.397Z,98782.59
2023-01-19T00:35:38.505Z,98778.06
2023-01-19T00:38:05.443Z,98778.88
2023-01-19T00:40:32.383Z,98784.94
2023-01-19T00:43:00.568Z,98781.34
2023-01-19T00:45:27.904Z,98785.59
2023-01-19T00:47:57.032Z,98788.06
2023-01-19T00:50:27.302Z,98787.25
2023-01-19T00:52:56.016Z,98785.31
2023-01-19T00:55:23.880Z,98781.72
2023-01-19T00:57:51.107Z,98783.06
2023-01-19T01:00:20.261Z,98784.75
2023-01-19T01:02:49.914Z,98787.06
2023-01-19T01:05:18.488Z,98785.94
2023-01-19T01:07:46.895Z,98792.00
2023-01-19T01:10:26.758Z,98791.06
2023-01-19T01:12:57.787Z,98797.78
2023-01-19T01:15:28.279Z,98806.47
2023-01-19T01:17:56.036Z,98803.69
2023-01-19T01:20:27.616Z,98797.34
2023-01-19T01:22:55.956Z,98799.00
2023-01-19T01:25:25.526Z,98802.28
2023-01-19T01:27:53.393Z,98803.09
2023-01-19T01:30:21.537Z,98804.75
2023-01-19T01:32:48.898Z,98808.88
2023-01-19T01:35:17.094Z,98806.28
2023-01-19T01:37:44.776Z,98809.72
2023-01-19T01:40:16.315Z,98808.75
2023-01-19T01:42:43.291Z,98811.22
2023-01-19T01:45:35.813Z,98813.56
2023-01-19T01:48:28.069Z,98814.38
2023-01-19T01:51:20.012Z,98808.31
2023-01-19T01:53:58.140Z,98816.84
2023-01-19T01:56:35.642Z,98826.34
2023-01-19T01:59:08.996Z,98816.69
2023-01-19T02:01:55.675Z,98814.88
2023-01-19T02:04:23.718Z,98821.78
2023-01-19T02:07:09.553Z,98820.81
2023-01-19T02:09:56.259Z,98819.16
2023-01-19T02:12:41.968Z,98816.53
2023-01-19T02:15:20.525Z,98814.88
2023-01-19T02:17:47.840Z,98815.03
2023-01-19T02:20:15.542Z,98809.97
2023-01-19T02:22:51.224Z,98809.13
2023-01-19T02:25:20.182Z,98816.16
2023-01-19T02:27:49.065Z,98814.66
2023-01-19T02:30:17.584Z,98813.81
2023-01-19T02:32:44.706Z,98812.34
2023-01-19T02:35:12.994Z,98810.53
2023-01-19T02:37:41.293Z,98810.69
2023-01-19T02:40:20.139Z,98808.88
2023-01-19T02:42:52.945Z,98806.41
2023-01-19T02:45:22.563Z,98805.56
2023-01-19T02:47:52.513Z,98816.06
2023-01-19T02:51:00.910Z,98816.06
2023-01-19T02:53:47.479Z,98823.78
2023-01-19T02:56:28.342Z,98815.94
2023-01-19T02:59:38.783Z,98814.97
2023-01-19T03:02:31.143Z,98817.41
2023-01-19T03:05:17.023Z,98821.53
2023-01-19T03:08:27.404Z,98811.75
2023-01-19T03:11:12.457Z,98808.16
2023-01-19T03:14:01.978Z,98806.34
2023-01-19T03:16:55.555Z,98804.41
2023-01-19T03:19:31.814Z,98805.38
2023-01-19T03:22:03.295Z,98812.25
2023-01-19T03:24:40.075Z,98807.03
2023-01-19T03:27:26.887Z,98801.13
2023-01-19T03:30:11.263Z,98801.13
2023-01-19T03:32:51.434Z,98808.00
2023-01-19T03:35:21.867Z,98812.25
2023-01-19T03:37:54.251Z,98820.13
2023-01-19T03:40:22.186Z,98816.53
2023-01-19T03:42:50.141Z,98827.72
2023-01-19T03:45:18.172Z,98826.72
2023-01-19T03:47:45.474Z,98830.03
2023-01-19T03:50:24.096Z,98838.56
2023-01-19T03:53:13.160Z,98835.00
2023-01-19T03:55:44.870Z,98838.44
2023-01-19T03:58:11.924Z,98845.16
2023-01-19T04:00:39.549Z,98839.91
2023-01-19T04:03:13.316Z,98845.81
2023-01-19T04:05:40.313Z,98844.88
2023-01-19T04:08:07.438Z,98849.16
2023-01-19T04:10:34.404Z,98848.19
2023-01-19T04:13:02.793Z,98842.94
2023-01-19T04:15:30.978Z,98848.19
2023-01-19T04:17:59.369Z,98850.66
2023-01-19T04:20:28.217Z,98849.66
2023-01-19T04:22:59.789Z,98844.28
2023-01-19T04:25:28.101Z,98840.81
2023-01-19T04:27:55.585Z,98847.59
2023-01-19T04:30:22.628Z,98847.59
2023-01-19T04:32:49.730Z,98847.59
2023-01-19T04:35:17.032Z,98836.13
2023-01-19T04:37:45.040Z,98840.41
2023-01-19T04:40:12.575Z,98840.41
2023-01-19T04:42:43.775Z,98835.97
2023-01-19T04:45:11.484Z,98847.28
2023-01-19T04:47:38.438Z,98849.06
2023-01-19T04:50:06.948Z,98852.69
2023-01-19T04:52:35.507Z,98850.88
2023-01-19T04:55:05.955Z,98860.38
2023-01-19T04:57:32.902Z,98853.50
2023-01-19T04:59:59.825Z,98866.44
2023-01-19T05:02:26.891Z,98865.47
2023-01-19T05:04:53.875Z,98866.31
2023-01-19T05:07:20.801Z,98867.97
2023-01-19T05:09:50.544Z,98869.63
2023-01-19T05:12:17.727Z,98869.63
2023-01-19T05:14:44.753Z,98876.50
2023-01-19T05:17:13.139Z,98874.56
2023-01-19T05:19:40.055Z,98875.38
2023-01-19T05:22:07.184Z,98876.19
2023-01-19T05:24:34.082Z,98875.25
2023-01-19T05:27:01.120Z,98880.19
2023-01-19T05:29:28.030Z,98879.22
2023-01-19T05:31:54.970Z,98872.97
2023-01-19T05:34:21.901Z,98880.84
2023-01-19T05:36:48.815Z,98878.94
2023-01-19T05:39:15.916Z,98876.31
2023-01-19T05:41:44.628Z,98879.75
2023-01-19T05:44:12.859Z,98870.91
2023-01-19T05:46:40.490Z,98878.78
2023-01-19T05:49:07.593Z,98882.22
2023-01-19T05:51:37.924Z,98871.56
2023-01-19T05:54:06.103Z,98873.38
2023-01-19T05:56:33.502Z,98870.75
2023-01-19T05:59:01.594Z,98879.59
2023-01-19T06:01:28.786Z,98871.72
2023-01-19T06:03:55.755Z,98877.94
2023-01-19T06:06:23.501Z,98867.47
2023-01-19T06:08:50.434Z,98878.94
2023-01-19T06:11:17.434Z,98887.75
2023-01-19T06:13:44.574Z,98892.97
2023-01-19T06:16:11.783Z,98899.19
2023-01-19T06:18:38.967Z,98893.97
2023-01-19T06:21:12.172Z,98899.19
2023-01-19T06:23:39.151Z,98901.69
2023-01-19T06:26:06.120Z,98899.09
2023-01-19T06:28:33.184Z,98903.34
2023-01-19T06:31:00.290Z,98909.25
2023-01-19T06:33:27.922Z,98906.47
2023-01-19T06:35:55.506Z,98914.19
2023-01-19T06:38:22.859Z,98922.75
2023-01-19T06:40:56.738Z,98919.16
2023-01-19T06:43:23.918Z,98913.91
2023-01-19T06:45:51.125Z,98915.41
2023-01-19T06:48:19.072Z,98918.03
2023-01-19T06:50:47.531Z,98916.09
2023-01-19T06:53:16.599Z,98922.19
2023-01-19T06:55:44.148Z,98924.78
2023-01-19T06:58:12.354Z,98935.13
2023-01-19T07:00:39.317Z,98936.78
2023-01-19T07:03:16.492Z,98940.22
2023-01-19T07:05:43.395Z,98938.41
2023-01-19T07:08:10.407Z,98937.44
2023-01-19T07:11:26.759Z,98936.50
2023-01-19T07:13:24.254Z,98938.41
2023-01-19T07:15:51.197Z,98941.75
2023-01-19T07:18:18.114Z,98935.66
2023-01-19T07:20:46.731Z,98941.75
2023-01-19T07:23:13.659Z,98936.50
2023-01-19T07:25:40.581Z,98939.13
2023-01-19T07:28:07.533Z,98945.19
2023-01-19T07:30:34.508Z,98939.13
2023-01-19T07:33:02.679Z,98950.56
2023-01-19T07:35:30.025Z,98948.63
2023-01-19T07:37:56.945Z,98951.25
2023-01-19T07:40:24.088Z,98954.72
2023-01-19T07:42:52.006Z,98955.53
2023-01-19T07:45:20.743Z,98958.81
2023-01-19T07:47:49.082Z,98960.47
2023-01-19T07:50:18.022Z,98960.47
2023-01-19T07:52:45.514Z,98957.72
2023-01-19T07:55:12.472Z,98962.81
2023-01-19T07:57:39.375Z,98958.53
2023-01-19T08:00:08.727Z,98961.00
2023-01-19T08:02:41.913Z,98969.53
2023-01-19T08:05:09.271Z,98967.59
2023-01-19T08:07:36.248Z,98964.03
2023-01-19T08:10:03.221Z,98964.84
2023-01-19T08:12:30.147Z,98973.38
2023-01-19T08:14:57.056Z,98969.78
2023-01-19T08:17:23.961Z,98969.78
2023-01-19T08:19:50.906Z,98975.69
2023-01-19T08:22:17.858Z,98984.28
2023-01-19T08:24:44.798Z,98982.47
2023-01-19T08:27:14.501Z,98978.03
2023-01-19T08:29:41.437Z,98985.59
2023-01-19T08:32:08.507Z,98988.09
2023-01-19T08:34:35.697Z,98994.84
2023-01-19T08:37:02.662Z,98988.63
2023-01-19T08:39:29.574Z,98995.34
2023-01-19T08:41:56.734Z,98990.97
2023-01-19T08:44:23.645Z,98992.59
2023-01-19T08:46:50.681Z,98990.66
2023-01-19T08:49:20.603Z,98997.53
2023-01-19T08:51:49.021Z,98989.53
2023-01-19T08:54:18.585Z,98998.22
2023-01-19T08:56:45.687Z,98992.84
2023-01-19T08:59:14.119Z,98998.91
2023-01-19T09:01:41.334Z,98995.31
2023-01-19T09:04:08.744Z,98996.97
2023-01-19T09:06:35.829Z,98999.59
2023-01-19T09:09:03.487Z,98999.44
2023-01-19T09:11:30.768Z,98997.34
2023-01-19T09:13:57.699Z,99004.56
2023-01-19T09:16:26.983Z,98995.38
2023-01-19T09:18:54.117Z,98999.66
2023-01-19T09:21:21.116Z,98996.06
2023-01-19T09:23:49.099Z,98995.94
2023-01-19T09:26:16.619Z,98995.78
2023-01-19T09:28:43.614Z,98989.53
2023-01-19T09:31:10.625Z,98997.41
2023-01-19T09:33:37.717Z,99004.31
2023-01-19T09:36:04.930Z,98991.03
2023-01-19T09:38:32.784Z,98999.75
2023-01-19T09:41:01.086Z,98995.19
2023-01-19T09:43:45.523Z,99008.97
2023-01-19T09:46:38.645Z,98998.47
2023-01-19T09:49:23.219Z,98997.47
2023-01-19T09:51:51.274Z,98996.50
2023-01-19T09:54:46.675Z,98997.19
2023-01-19T09:57:14.670Z,98996.22
2023-01-19T09:59:43.849Z,98995.09
2023-01-19T10:02:37.073Z,98995.91
2023-01-19T10:05:29.098Z,99001.97
2023-01-19T10:08:32.684Z,99004.59
2023-01-19T10:10:59.806Z,99007.22
2023-01-19T10:13:54.050Z,99007.78
2023-01-19T10:16:53.025Z,99005.00
2023-01-19T10:19:27.646Z,99012.03
2023-01-19T10:21:58.589Z,99013.84
2023-01-19T10:24:43.901Z,99005.00
2023-01-19T10:27:17.987Z,99007.78
2023-01-19T10:29:46.228Z,98993.81
2023-01-19T10:32:25.648Z,99000.72
2023-01-19T10:34:54.066Z,99008.44
2023-01-19T10:37:34.152Z,99004.72
2023-01-19T10:40:10.268Z,99010.47
2023-01-19T10:42:40.126Z,99005.22
2023-01-19T10:45:23.577Z,99005.75
2023-01-19T10:47:52.942Z,99012.34
2023-01-19T10:50:28.495Z,99006.94
2023-01-19T10:53:02.062Z,99011.72
2023-01-19T10:55:38.155Z,99013.91
2023-01-19T10:58:07.430Z,99013.59
2023-01-19T11:00:39.405Z,99018.56
2023-01-19T11:03:26.396Z,99012.16
2023-01-19T11:05:53.537Z,99014.63
2023-01-19T11:08:31.037Z,99012.38
2023-01-19T11:11:08.578Z,99014.72
2023-01-19T11:13:36.184Z,99017.84
2023-01-19T11:16:39.882Z,99024.31
2023-01-19T11:19:20.104Z,99020.53
2023-01-19T11:21:47.347Z,99019.25
2023-01-19T11:24:16.302Z,99021.56
2023-01-19T11:26:47.965Z,99018.47
2023-01-19T11:29:23.315Z,99010.13
2023-01-19T11:31:52.272Z,99017.69
2023-01-19T11:34:22.178Z,99009.53
2023-01-19T11:37:05.446Z,99015.44
2023-01-19T11:39:54.834Z,99015.97
2023-01-19T11:42:22.309Z,99007.25
2023-01-19T11:44:52.231Z,98999.22
2023-01-19T11:47:41.715Z,99007.09
2023-01-19T11:50:42.380Z,98996.56
2023-01-19T11:53:25.349Z,98992.78
2023-01-19T11:56:02.823Z,98988.38
2023-01-19T11:58:32.722Z,98993.63
2023-01-19T12:01:21.152Z,98984.09
2023-01-19T12:04:15.149Z,98983.91
2023-01-19T12:06:47.792Z,98989.06
2023-01-19T12:09:27.477Z,98987.25
2023-01-19T12:12:04.024Z,98984.44
2023-01-19T12:14:54.593Z,98982.47
2023-01-19T12:17:33.616Z,98977.88
2023-01-19T12:20:31.307Z,98980.50
2023-01-19T12:23:19.262Z,98985.47
2023-01-19T12:26:16.396Z,98976.91
2023-01-19T12:28:48.203Z,98973.31
2023-01-19T12:31:21.670Z,98984.00
2023-01-19T12:33:49.501Z,98975.09
2023-01-19T12:36:33.103Z,98980.50
2023-01-19T12:39:04.696Z,98970.84
2023-01-19T12:41:41.419Z,98973.31
2023-01-19T12:44:11.545Z,98976.59
2023-01-19T12:46:49.398Z,98973.13
2023-01-19T12:49:44.497Z,98967.88
2023-01-19T12:52:20.227Z,98965.41
2023-01-19T12:55:06.479Z,98971.31
2023-01-19T12:57:40.854Z,98962.44
2023-01-19T13:00:10.923Z,98963.28
2023-01-19T13:02:47.297Z,98962.81
2023-01-19T13:05:17.520Z,98964.00
2023-01-19T13:08:02.616Z,98959.91
2023-01-19T13:11:00.428Z,98950.22
2023-01-19T13:13:45.013Z,98952.22
2023-01-19T13:16:27.355Z,98960.59
2023-01-19T13:19:00.436Z,98957.31
2023-01-19T13:21:39.872Z,98969.84
2023-01-19T13:24:24.200Z,98957.38
2023-01-19T13:26:53.997Z,98965.59
2023-01-19T13:29:34.515Z,98966.28
2023-01-19T13:32:17.450Z,98971.19
2023-01-19T13:34:52.815Z,98969.38
2023-01-19T13:37:28.564Z,98960.50
2023-01-19T13:39:56.541Z,98964.13
2023-01-19T13:42:41.452Z,98963.81
2023-01-19T13:45:34.117Z,98974.47
2023-01-19T13:48:06.480Z,98971.84
2023-01-19T13:50:39.273Z,98971.84
2023-01-19T13:53:21.116Z,98974.47
2023-01-19T13:55:48.391Z,98973.50
2023-01-19T13:58:23.834Z,98977.13
2023-01-19T14:00:51.061Z,98976.63
2023-01-19T14:03:23.969Z,98979.09
2023-01-19T14:05:53.822Z,98985.53
2023-01-19T14:08:22.415Z,98982.72
2023-01-19T14:10:56.157Z,98985.53
2023-01-19T14:13:26.527Z,98985.53
2023-01-19T14:15:57.947Z,98992.91
2023-01-19T14:18:33.746Z,98983.53
2023-01-19T14:21:13.355Z,98988.78
2023-01-19T14:23:46.894Z,98986.31
2023-01-19T14:26:52.832Z,98982.84
2023-01-19T14:29:33.087Z,98996.00
2023-01-19T14:32:15.095Z,98986.63
2023-01-19T14:34:50.254Z,98988.44
2023-01-19T14:37:35.679Z,98997.16
2023-01-19T14:40:05.572Z,98989.72
2023-01-19T14:42:44.212Z,98995.00
2023-01-19T14:45:21.765Z,98990.72
2023-01-19T14:48:04.754Z,98994.69
2023-01-19T14:50:42.807Z,98998.25
2023-01-19T14:53:28.380Z,98996.78
2023-01-19T14:56:02.837Z,98998.59
2023-01-19T14:58:33.579Z,99003.84
2023-01-19T15:01:00.586Z,98992.50
2023-01-19T15:03:44.384Z,98990.88
2023-01-19T15:06:19.245Z,98994.63
2023-01-19T15:08:47.288Z,99004.19
2023-01-19T15:11:24.675Z,98998.25
2023-01-19T15:13:51.928Z,98996.75
2023-01-19T15:16:19.995Z,99005.66
2023-01-19T15:18:47.087Z,99006.75
2023-01-19T15:21:19.423Z,99001.84
2023-01-19T15:23:47.499Z,99001.31
2023-01-19T15:26:18.940Z,99008.53
2023-01-19T15:28:48.668Z,99006.09
2023-01-19T15:31:17.968Z,99003.63
2023-01-19T15:33:45.418Z,99003.75
2023-01-19T15:36:22.045Z,99005.72
2023-01-19T15:38:50.912Z,99010.50
2023-01-19T15:41:31.765Z,99010.50
2023-01-19T15:43:59.219Z,99009.78
2023-01-19T15:46:26.600Z,99011.59
2023-01-19T15:48:54.142Z,99017.84
2023-01-19T15:51:28.015Z,99022.28
2023-01-19T15:53:55.609Z,99014.25
2023-01-19T15:56:31.227Z,99012.59
2023-01-19T15:58:59.043Z,99016.03
2023-01-19T16:01:32.551Z,99019.50
2023-01-19T16:04:02.435Z,99017.84
2023-01-19T16:06:30.752Z,99022.28
2023-01-19T16:09:01.271Z,99019.66
2023-01-19T16:11:31.537Z,99023.94
2023-01-19T16:13:58.594Z,99021.31
2023-01-19T16:16:26.645Z,99023.94
2023-01-19T16:18:53.689Z,99033.63
2023-01-19T16:21:20.748Z,99029.19
2023-01-19T16:23:47.646Z,99038.06
2023-01-19T16:26:36.496Z,99035.59
2023-01-19T16:29:08.644Z,99032.16
2023-01-19T16:31:37.772Z,99034.78
2023-01-19T16:34:04.736Z,99028.69
2023-01-19T16:36:35.305Z,99040.03
2023-01-19T16:39:07.902Z,99034.78
2023-01-19T16:41:35.538Z,99037.41
2023-01-19T16:44:03.688Z,99046.13
2023-01-19T16:46:36.873Z,99041.69
2023-01-19T16:49:13.829Z,99044.47
2023-01-19T16:51:40.932Z,99045.31
2023-01-19T16:54:11.141Z,99045.31
2023-01-19T16:56:38.243Z,99041.00
2023-01-19T16:59:05.153Z,99045.44
2023-01-19T17:01:32.314Z,99047.25
2023-01-19T17:03:59.377Z,99050.84
2023-01-19T17:06:26.502Z,99045.91
2023-01-19T17:08:53.621Z,99042.59
2023-01-19T17:11:24.466Z,99055.91
2023-01-19T17:14:06.162Z,99050.16
2023-01-19T17:16:35.131Z,99052.91
2023-01-19T17:19:05.202Z,99055.22
2023-01-19T17:21:32.430Z,99052.38
2023-01-19T17:24:00.031Z,99053.63
2023-01-19T17:26:29.435Z,99049.38
2023-01-19T17:29:04.309Z,99052.28
2023-01-19T17:31:32.073Z,99053.88
2023-01-19T17:34:00.241Z,99048.13
2023-01-19T17:36:29.648Z,99057.81
2023-01-19T17:38:59.365Z,99054.63
2023-01-19T17:41:29.792Z,99053.97
2023-01-19T17:43:57.898Z,99060.38
2023-01-19T17:46:28.302Z,99059.69
2023-01-19T17:49:03.168Z,99056.38
2023-01-19T17:51:31.738Z,99067.19
2023-01-19T17:53:59.049Z,99066.34
2023-01-19T17:56:30.236Z,99065.84
2023-01-19T17:58:59.003Z,99068.47
2023-01-19T18:01:33.722Z,99066.97
2023-01-19T18:04:02.481Z,99060.88
2023-01-19T18:06:29.541Z,99070.56
2023-01-19T18:08:58.217Z,99062.84
2023-01-19T18:11:26.325Z,99068.94
2023-01-19T18:13:53.546Z,99068.09
2023-01-19T18:16:27.488Z,99068.09
2023-01-19T18:18:56.328Z,99082.22
2023-01-19T18:21:27.237Z,99075.31
2023-01-19T18:24:05.684Z,99077.94
2023-01-19T18:26:34.584Z,99072.69
2023-01-19T18:29:01.607Z,99066.75
2023-01-19T18:31:28.919Z,99072.84
2023-01-19T18:33:55.933Z,99072.00
2023-01-19T18:36:23.026Z,99066.75
2023-01-19T18:38:50.163Z,99070.34
2023-01-19T18:41:20.843Z,99064.44
2023-01-19T18:43:48.633Z,99066.22
2023-01-19T18:46:16.762Z,99068.03
2023-01-19T18:48:43.892Z,99064.59
2023-01-19T18:51:13.868Z,99069.84
2023-01-19T18:53:41.045Z,99062.94
2023-01-19T18:56:10.937Z,99069.00
2023-01-19T18:58:40.238Z,99068.19
2023-01-19T19:01:31.509Z,99074.25
2023-01-19T19:03:59.818Z,99076.19
2023-01-19T19:06:27.779Z,99074.38
2023-01-19T19:08:57.572Z,99076.19
2023-01-19T19:11:25.807Z,99074.56
2023-01-19T19:14:00.937Z,99071.91
2023-01-19T19:16:28.788Z,99068.47
2023-01-19T19:18:55.949Z,99069.44
2023-01-19T19:21:25.464Z,99076.34
2023-01-19T19:23:55.161Z,99072.06
2023-01-19T19:26:24.223Z,99066.00
2023-01-19T19:28:51.199Z,99070.44
2023-01-19T19:31:21.663Z,99079.13
2023-01-19T19:33:50.855Z,99077.50
2023-01-19T19:36:19.738Z,99076.50
2023-01-19T19:38:47.750Z,99076.50
2023-01-19T19:41:22.142Z,99078.16
2023-01-19T19:43:49.907Z,99083.41
2023-01-19T19:46:20.058Z,99085.06
2023-01-19T19:48:49.828Z,99089.47
2023-01-19T19:51:27.010Z,99086.03
2023-01-19T19:54:00.151Z,99085.88
2023-01-19T19:56:30.543Z,99084.06
2023-01-19T19:58:59.165Z,99090.31
2023-01-19T20:01:32.539Z,99089.31
2023-01-19T20:04:09.267Z,99089.31
2023-01-19T20:06:39.795Z,99093.63
2023-01-19T20:09:10.323Z,99090.16
2023-01-19T20:11:37.501Z,99089.19
2023-01-19T20:14:10.311Z,99084.78
2023-01-19T20:16:38.200Z,99094.31
2023-01-19T20:19:05.623Z,99101.34
2023-01-19T20:21:36.266Z,99099.56
2023-01-19T20:24:07.705Z,99096.09
2023-01-19T20:26:39.831Z,99098.72
2023-01-19T20:29:07.203Z,99095.28
2023-01-19T20:31:43.402Z,99097.09
2023-01-19T20:34:13.659Z,99102.19
2023-01-19T20:36:57.186Z,99103.97
2023-01-19T20:39:25.087Z,99105.78
2023-01-19T20:41:52.699Z,99096.94
2023-01-19T20:44:24.059Z,99101.34
2023-01-19T20:46:52.887Z,99102.19
2023-01-19T20:49:20.557Z,99102.19
2023-01-19T20:51:48.482Z,99107.44
2023-01-19T20:54:19.884Z,99112.69
2023-01-19T20:56:46.919Z,99111.88
2023-01-19T20:59:14.531Z,99107.44
2023-01-19T21:01:42.447Z,99102.19
2023-01-19T21:04:09.920Z,99112.69
2023-01-19T21:06:37.624Z,99116.13
2023-01-19T21:09:04.994Z,99115.31
2023-01-19T21:11:31.993Z,99117.94
2023-01-19T21:14:00.013Z,99116.28
2023-01-19T21:16:31.660Z,99117.94
2023-01-19T21:18:59.139Z,99117.94
2023-01-19T21:21:31.384Z,99125.81
2023-01-19T21:24:01.111Z,99125.97
2023-01-19T21:26:33.352Z,99124.19
2023-01-19T21:29:01.906Z,99133.03
2023-01-19T21:31:29.160Z,99130.41
2023-01-19T21:33:59.059Z,99135.66
2023-01-19T21:36:26.372Z,99133.97
2023-01-19T21:38:55.472Z,99133.97
2023-01-19T21:41:22.851Z,99137.59
2023-01-19T21:43:49.802Z,99141.19
2023-01-19T21:46:29.347Z,99150.06
2023-01-19T21:48:59.328Z,99147.44
2023-01-19T21:51:27.186Z,99143.97
2023-01-19T21:53:59.522Z,99154.47
2023-01-19T21:56:28.256Z,99157.94
2023-01-19T21:58:56.898Z,99169.41
2023-01-19T22:01:24.164Z,99158.09
2023-01-19T22:03:56.437Z,99164.16
2023-01-19T22:06:24.939Z,99160.84
2023-01-19T22:08:52.507Z,99168.59
2023-01-19T22:11:21.291Z,99167.78
2023-01-19T22:13:48.521Z,99178.28
2023-01-19T22:16:19.385Z,99173.84
2023-01-19T22:18:56.216Z,99173.97
2023-01-19T22:21:34.106Z,99184.47
2023-01-19T22:24:02.822Z,99184.47
2023-01-19T22:26:31.889Z,99190.72
2023-01-19T22:29:01.807Z,99184.63
2023-01-19T22:31:30.776Z,99186.28
2023-01-19T22:33:58.520Z,99192.34
2023-01-19T22:36:38.103Z,99186.28
2023-01-19T22:39:08.829Z,99182.69
2023-01-19T22:41:42.808Z,99186.28
2023-01-19T22:44:16.519Z,99187.97
2023-01-19T22:46:43.877Z,99189.72
2023-01-19T22:49:14.895Z,99191.53
2023-01-19T22:51:42.360Z,99190.72
2023-01-19T22:54:10.590Z,99190.72
2023-01-19T22:56:39.495Z,99190.72
2023-01-19T22:59:07.560Z,99193.22
2023-01-19T23:01:43.444Z,99189.72
2023-01-19T23:04:15.849Z,99193.22
2023-01-19T23:06:43.023Z,99190.59
2023-01-19T23:09:14.910Z,99194.03
2023-01-19T23:11:45.670Z,99196.66
2023-01-19T23:14:16.714Z,99193.22
2023-01-19T23:16:44.033Z,99200.13
2023-01-19T23:19:12.723Z,99187.09
2023-01-19T23:21:40.627Z,99189.72
2023-01-19T23:24:08.112Z,99192.34
2023-01-19T23:26:38.299Z,99198.47
2023-01-19T23:29:14.559Z,99197.59
2023-01-19T23:31:48.787Z,99200.38
2023-01-19T23:34:16.287Z,99196.94
2023-01-19T23:36:43.767Z,99191.00
2023-01-19T23:39:14.992Z,99196.13
2023-01-19T23:41:41.921Z,99197.91
2023-01-19T23:44:08.827Z,99200.69
2023-01-19T23:46:35.871Z,99200.69
2023-01-19T23:49:02.888Z,99199.88
2023-01-19T23:51:31.633Z,99208.72
2023-01-19T23:53:59.914Z,99212.31
2023-01-19T23:56:31.652Z,99206.22
2023-01-19T23:59:06.851Z,99213.28
